Kezdőlap
METAR-TAF:

METAR-TAF

Repülőterek :

Zinder, Niger

földrajzi szélesség: 13-47N, földrajzi hosszúság: 008-59E, magasság: 452 m

Jelenlegi meteorológiai megfigyelések

A jelentés 1 órával és 7 perccel ezelõtt készült, 15:00 UTC
Keleti szél 10 kt, északkeleti és kelet-délkeleti között változik
Hőmérséklet 33°C
Páratartalom 8%
Légköri nyomás 1012 hPa
Látótávolság 10 km, vagy több
felhőtlen 1500 m magasságban, és nincs gomolyfelhõ

METAR: DRZR 061500Z 08010KT 050V110 CAVOK 33/M06 Q1012

Idő: 17:07 (16:07 UTC)

Előrejelzés

A jelentés 5 órával és 7 perccel ezelõtt készült, 11:00 UTC
Az előrejelzés 06-én 12 óra UTC és 07-én 12 óra UTC között érvényes
Kelet-északkeleti szél 12 kt
Látótávolság: 8000 m

TAF: DRZR 061100Z 0612/0712 07012KT 8000 NSC

Meteorológiai megfigyelések és előrejelzések több, mint 4000 repülőtéren (METAR és TAF jelentéseket).

A térképen piros és sárga pontok jelzik az elérhető meteorológiai állomásokat.

Mozgassa az egeret a pont fölött, hogy megjelenjen az állomás neve.

Azután kattintson az időjárási megfigyelések és előrejelzések megtekintéséhez.

A térkép megváltoztatása: kattintson a fekete keresztel jelölt zöld gombra ráközelítéshez, a vonallal jelölt zöld gombra távolításhoz, vagy a zöld nyilakra a szomszédos térképek eléréséhez.


METAR-TAF: